Time;durP1;ratioP1;P1;durP2;ratioP2;P2;SDS_P1;SDS_P2;PMS_P1;PMS_P2;Temp;Humidity;BMP_temperature;BMP_pressure;BME280_temperature;BME280_humidity;BME280_pressure;Samples;Min_cycle;Max_cycle;Signal;HPM_P1;HPM_P2
2023/06/10 00:03:41;;;;;;;1.63;0.88;;;;;;;9.09;55.46;102095.22;10307262;28;20042;-77
2023/06/10 00:08:43;;;;;;;1.55;0.80;;;;;;;8.97;55.72;102097.94;10326422;28;20039;-77
2023/06/10 00:13:45;;;;;;;1.13;0.70;;;;;;;8.84;56.39;102097.31;10324223;28;20112;-77
2023/06/10 00:18:48;;;;;;;1.30;0.88;;;;;;;8.76;57.22;102106.69;10312290;28;20406;-76
2023/06/10 00:23:51;;;;;;;1.10;0.90;;;;;;;8.66;56.71;102107.25;10298957;28;20035;-75
2023/06/10 00:28:53;;;;;;;1.23;0.82;;;;;;;8.66;57.79;102115.44;10285576;28;20413;-77
2023/06/10 00:33:58;;;;;;;1.10;0.80;;;;;;;8.58;57.12;102114.97;10273709;28;20047;-77
2023/06/10 00:39:01;;;;;;;0.82;0.60;;;;;;;8.53;57.52;102107.44;10308972;28;20043;-75
2023/06/10 00:44:03;;;;;;;0.70;0.70;;;;;;;8.49;58.30;102119.91;10288035;28;20043;-76
2023/06/10 00:49:06;;;;;;;0.95;0.95;;;;;;;8.38;58.77;102139.84;10300072;28;20395;-76
2023/06/10 00:54:08;;;;;;;2.60;1.10;;;;;;;8.39;59.27;102142.34;10268106;29;20046;-76
2023/06/10 00:59:10;;;;;;;1.33;0.80;;;;;;;8.35;59.13;102140.31;10283551;29;20324;-76
2023/06/10 01:04:13;;;;;;;1.92;0.93;;;;;;;8.37;59.79;102143.66;10257174;29;20043;-75
2023/06/10 01:09:32;;;;;;;0.60;0.60;;;;;;;8.31;60.10;102152.72;10321187;28;20065;-75
2023/06/10 01:14:36;;;;;;;1.33;0.70;;;;;;;8.24;59.57;102150.06;10282676;28;20054;-76
2023/06/10 01:19:40;;;;;;;0.85;0.70;;;;;;;8.21;60.32;102144.22;10320095;28;20054;-76
2023/06/10 01:24:43;;;;;;;1.05;0.90;;;;;;;8.19;59.92;102155.41;10320843;28;20042;-76
2023/06/10 01:29:48;;;;;;;1.10;0.85;;;;;;;8.16;60.32;102151.22;10276774;28;20038;-76
2023/06/10 01:34:50;;;;;;;1.15;0.70;;;;;;;8.14;61.17;102158.78;10305082;28;20053;-76
2023/06/10 01:39:57;;;;;;;1.10;0.85;;;;;;;8.04;61.53;102166.72;10283890;28;20516;-76
2023/06/10 01:44:59;;;;;;;1.30;0.98;;;;;;;8.01;61.61;102169.06;10295330;28;20051;-76
2023/06/10 01:50:02;;;;;;;0.80;0.70;;;;;;;7.98;61.88;102174.97;10318721;28;20047;-76
2023/06/10 01:55:06;;;;;;;0.85;0.80;;;;;;;8.18;62.55;102177.50;10314420;28;20055;-76
2023/06/10 02:00:10;;;;;;;1.98;0.80;;;;;;;8.56;61.68;102183.59;10318542;28;20050;-76
2023/06/10 02:05:19;;;;;;;1.20;0.73;;;;;;;8.61;61.17;102193.84;10318394;28;20042;-76
2023/06/10 02:10:21;;;;;;;1.58;0.82;;;;;;;8.81;61.67;102207.25;10304381;28;20046;-76
2023/06/10 02:15:23;;;;;;;2.42;0.90;;;;;;;9.02;61.09;102201.28;10284963;28;20050;-76
2023/06/10 02:20:26;;;;;;;0.80;0.80;;;;;;;9.26;60.18;102200.28;10304358;28;20050;-76
2023/06/10 02:25:28;;;;;;;1.20;0.90;;;;;;;9.22;60.28;102214.69;10282240;28;20047;-76
2023/06/10 02:30:31;;;;;;;3.28;0.85;;;;;;;9.46;59.97;102216.41;10301296;28;20065;-75
2023/06/10 02:35:33;;;;;;;1.50;0.75;;;;;;;9.55;60.59;102227.88;10281164;28;20050;-75
2023/06/10 02:40:35;;;;;;;1.63;0.98;;;;;;;9.47;60.90;102217.25;10302104;28;20434;-74
2023/06/10 02:45:38;;;;;;;1.10;1.00;;;;;;;9.70;60.27;102230.97;10303452;28;20051;-75
2023/06/10 02:50:42;;;;;;;1.40;1.10;;;;;;;9.93;60.15;102238.41;10302832;28;20517;-75
2023/06/10 02:55:54;;;;;;;1.92;1.20;;;;;;;10.15;59.26;102246.88;10309447;28;20541;-77
2023/06/10 03:00:58;;;;;;;3.70;0.90;;;;;;;10.38;58.05;102251.53;10299507;28;20043;-75
2023/06/10 03:06:02;;;;;;;2.15;1.02;;;;;;;10.09;59.64;102267.03;10297312;28;20043;-75
2023/06/10 03:11:05;;;;;;;1.17;0.93;;;;;;;10.22;58.64;102266.81;10299188;28;20046;-76
2023/06/10 03:16:09;;;;;;;1.10;0.80;;;;;;;10.08;59.13;102265.38;10296789;28;20069;-76
2023/06/10 03:21:14;;;;;;;2.10;1.10;;;;;;;10.52;58.44;102264.75;10292069;28;20038;-75
2023/06/10 03:26:17;;;;;;;3.00;0.98;;;;;;;10.48;59.04;102268.22;10290877;28;20421;-75
2023/06/10 03:31:24;;;;;;;1.00;0.88;;;;;;;10.80;57.67;102272.22;10285377;28;20042;-75
2023/06/10 03:36:29;;;;;;;1.90;1.10;;;;;;;11.01;57.53;102267.97;10259358;28;20043;-75
2023/06/10 03:41:32;;;;;;;1.85;1.00;;;;;;;11.23;57.69;102283.78;10275813;28;20065;-76
2023/06/10 03:46:36;;;;;;;1.20;0.93;;;;;;;11.48;56.94;102285.13;10278545;28;20047;-76
2023/06/10 03:51:39;;;;;;;6.90;1.30;;;;;;;11.47;55.99;102283.44;10289972;28;20053;-75
2023/06/10 03:56:42;;;;;;;6.20;1.05;;;;;;;11.77;55.60;102290.53;10288454;28;20537;-75
2023/06/10 04:01:45;;;;;;;3.03;1.05;;;;;;;11.90;55.87;102297.69;10305695;28;20043;-76
2023/06/10 04:06:48;;;;;;;1.02;1.00;;;;;;;12.29;54.31;102301.31;10297320;28;20407;-75
2023/06/10 04:11:51;;;;;;;1.33;1.10;;;;;;;12.56;54.18;102310.56;10306626;28;20035;-75
2023/06/10 04:16:53;;;;;;;1.30;1.10;;;;;;;12.37;55.01;102304.50;10298651;28;20055;-75
2023/06/10 04:21:55;;;;;;;1.70;1.20;;;;;;;12.84;53.42;102308.72;10285200;28;20549;-75
2023/06/10 04:26:57;;;;;;;1.38;0.90;;;;;;;12.91;53.98;102312.13;10299213;28;20517;-77
2023/06/10 04:32:01;;;;;;;1.05;0.65;;;;;;;13.30;52.81;102314.81;10299841;28;20510;-77
2023/06/10 04:37:04;;;;;;;1.73;1.00;;;;;;;13.82;51.24;102323.34;10298511;28;20553;-77
2023/06/10 04:42:07;;;;;;;1.30;0.90;;;;;;;14.14;50.35;102313.16;10224283;28;1204903;-75
2023/06/10 04:47:10;;;;;;;1.17;0.70;;;;;;;14.60;48.29;102318.19;10292444;28;20421;-76
2023/06/10 04:52:14;;;;;;;0.80;0.77;;;;;;;14.54;48.30;102322.84;10292403;28;20035;-77
2023/06/10 04:57:17;;;;;;;0.90;0.60;;;;;;;14.35;48.30;102325.19;10293479;28;20050;-77
2023/06/10 05:02:20;;;;;;;1.73;0.80;;;;;;;14.59;47.45;102324.81;10300602;28;20055;-76
2023/06/10 05:07:22;;;;;;;0.57;0.55;;;;;;;14.58;46.72;102326.75;10313436;28;20053;-78
2023/06/10 05:12:25;;;;;;;1.17;0.60;;;;;;;14.78;45.25;102329.63;10314579;28;20039;-78
2023/06/10 05:17:28;;;;;;;0.70;0.47;;;;;;;15.39;43.98;102329.88;10281208;28;20617;-77
2023/06/10 05:22:30;;;;;;;1.13;0.77;;;;;;;15.97;42.41;102341.66;10281784;28;20428;-77
2023/06/10 05:27:32;;;;;;;0.73;0.60;;;;;;;15.62;43.56;102341.59;10306437;28;20521;-78
2023/06/10 05:32:34;;;;;;;0.80;0.70;;;;;;;16.46;42.75;102349.34;10312184;28;20050;-77
2023/06/10 05:37:37;;;;;;;0.70;0.60;;;;;;;15.70;42.25;102345.75;10286781;28;20075;-77
2023/06/10 05:42:39;;;;;;;0.65;0.60;;;;;;;15.60;41.93;102360.38;10287019;28;20079;-77
2023/06/10 05:47:41;;;;;;;0.73;0.70;;;;;;;14.45;43.75;102371.41;10307658;28;20042;-77
2023/06/10 05:52:43;;;;;;;0.85;0.80;;;;;;;13.83;44.63;102370.00;10300777;28;20501;-77
2023/06/10 05:57:45;;;;;;;0.93;0.70;;;;;;;15.10;42.44;102383.97;10282702;28;20031;-78
2023/06/10 06:02:48;;;;;;;1.08;0.98;;;;;;;15.02;42.15;102374.25;10319580;28;20416;-77
2023/06/10 06:07:50;;;;;;;0.70;0.70;;;;;;;16.16;40.73;102369.63;10292181;28;20049;-77
2023/06/10 06:12:52;;;;;;;0.80;0.80;;;;;;;15.88;41.03;102368.19;10314718;28;20039;-77
2023/06/10 06:17:55;;;;;;;1.67;0.70;;;;;;;15.42;40.74;102371.91;10297547;28;20403;-76
2023/06/10 06:22:57;;;;;;;1.13;0.80;;;;;;;15.62;40.45;102372.88;10293668;28;20039;-77
2023/06/10 06:28:00;;;;;;;0.88;0.80;;;;;;;16.49;38.05;102371.00;10292267;28;20054;-77
2023/06/10 06:33:02;;;;;;;0.98;0.88;;;;;;;16.46;36.74;102382.63;10296853;28;20047;-77
2023/06/10 06:38:04;;;;;;;0.75;0.70;;;;;;;16.62;34.70;102380.66;10308947;28;20039;-77
2023/06/10 06:43:08;;;;;;;1.95;0.80;;;;;;;16.38;36.48;102390.66;10279563;28;20043;-77
2023/06/10 06:48:19;;;;;;;1.52;0.60;;;;;;;15.47;38.21;102385.78;10295643;28;20470;-77
2023/06/10 06:53:21;;;;;;;1.00;0.73;;;;;;;16.34;37.11;102384.84;10300774;28;20043;-77
2023/06/10 06:58:23;;;;;;;0.85;0.77;;;;;;;16.38;37.81;102388.72;10271886;28;20511;-77
2023/06/10 07:03:26;;;;;;;1.45;0.70;;;;;;;15.92;37.68;102388.69;10275021;28;20043;-76
2023/06/10 07:08:28;;;;;;;1.17;1.05;;;;;;;15.93;41.44;102398.66;10291368;28;20042;-76
2023/06/10 07:13:30;;;;;;;0.80;0.70;;;;;;;17.99;35.63;102404.28;10286501;28;20505;-77
2023/06/10 07:18:33;;;;;;;0.90;0.75;;;;;;;19.12;32.61;102400.25;10303670;28;20054;-76
2023/06/10 07:23:35;;;;;;;0.82;0.80;;;;;;;17.83;34.42;102419.41;10305894;28;20139;-79
2023/06/10 07:28:41;;;;;;;2.22;0.75;;;;;;;16.25;36.36;102420.56;10307295;28;20059;-76
2023/06/10 07:33:43;;;;;;;0.75;0.60;;;;;;;14.30;40.54;102432.00;10288914;28;20047;-76
2023/06/10 07:38:45;;;;;;;1.60;1.10;;;;;;;14.41;40.00;102436.53;10308459;28;20055;-77
2023/06/10 07:43:47;;;;;;;1.05;0.90;;;;;;;15.61;39.27;102425.69;10317698;28;20536;-77
2023/06/10 07:48:50;;;;;;;1.70;0.98;;;;;;;16.94;36.60;102430.25;10280396;28;20054;-77
2023/06/10 07:53:52;;;;;;;0.52;0.52;;;;;;;16.13;37.59;102428.31;10320927;28;20421;-77
2023/06/10 07:58:54;;;;;;;0.65;0.65;;;;;;;14.86;39.91;102432.47;10305522;28;20042;-77
2023/06/10 08:03:56;;;;;;;1.23;0.90;;;;;;;14.24;41.77;102444.13;10309102;28;20047;-78
2023/06/10 08:08:59;;;;;;;1.70;0.98;;;;;;;14.02;41.07;102456.03;10322757;28;20502;-78
2023/06/10 08:14:02;;;;;;;0.80;0.80;;;;;;;14.85;40.92;102445.47;10327533;28;20042;-76
2023/06/10 08:19:04;;;;;;;0.80;0.80;;;;;;;17.12;36.67;102457.41;10306733;28;20422;-76
2023/06/10 08:24:07;;;;;;;1.48;0.85;;;;;;;18.26;34.10;102437.19;10312563;28;20038;-82
2023/06/10 08:29:11;;;;;;;1.02;0.90;;;;;;;18.78;34.22;102441.22;10320366;28;20046;-76
2023/06/10 08:34:13;;;;;;;0.80;0.80;;;;;;;18.78;33.95;102447.63;10299035;28;20047;-77
2023/06/10 08:39:16;;;;;;;0.57;0.50;;;;;;;18.22;33.22;102459.16;10303528;28;20059;-76
2023/06/10 08:44:30;;;;;;;0.80;0.80;;;;;;;18.52;33.21;102451.69;10318484;28;20046;-78
2023/06/10 08:49:34;;;;;;;1.70;0.80;;;;;;;18.17;32.91;102466.69;10319258;28;20446;-76
2023/06/10 08:54:38;;;;;;;0.73;0.60;;;;;;;17.83;32.65;102466.59;10306019;28;20137;-75
2023/06/10 08:59:41;;;;;;;0.50;0.50;;;;;;;17.55;33.90;102466.16;10292572;28;20150;-75
2023/06/10 09:04:44;;;;;;;0.70;0.70;;;;;;;18.14;32.77;102459.75;10317105;28;20054;-77
2023/06/10 09:09:48;;;;;;;1.05;0.65;;;;;;;18.43;31.71;102470.13;10314358;28;20506;-81
2023/06/10 09:14:50;;;;;;;0.68;0.63;;;;;;;18.59;31.69;102466.94;10323646;28;20047;-76
2023/06/10 09:19:55;;;;;;;1.75;0.80;;;;;;;17.85;32.38;102459.66;10314819;28;20046;-80
2023/06/10 09:25:08;;;;;;;0.52;0.52;;;;;;;17.26;33.17;102468.75;10305404;28;20051;-78
2023/06/10 09:30:29;;;;;;;0.63;0.63;;;;;;;15.91;34.90;102485.88;10290922;28;20054;-80
2023/06/10 09:35:32;;;;;;;0.77;0.70;;;;;;;15.34;35.57;102473.69;10305537;28;20050;-80
2023/06/10 09:40:48;;;;;;;5.43;0.90;;;;;;;15.15;35.73;102477.19;10308905;28;20077;-80
2023/06/10 09:45:53;;;;;;;3.80;0.70;;;;;;;14.60;36.90;102482.03;10289500;28;20043;-79
2023/06/10 09:50:56;;;;;;;0.70;0.70;;;;;;;14.37;36.34;102469.34;10297185;28;20035;-79
2023/06/10 09:55:58;;;;;;;1.63;0.73;;;;;;;14.12;37.11;102471.88;10304664;28;20542;-80
2023/06/10 10:01:10;;;;;;;3.35;1.00;;;;;;;13.90;36.71;102493.16;10305424;28;20047;-79
2023/06/10 10:06:17;;;;;;;1.65;0.85;;;;;;;13.52;37.67;102476.41;10301710;28;20050;-81
2023/06/10 10:11:25;;;;;;;0.73;0.73;;;;;;;13.11;37.81;102491.53;10307120;28;20046;-80
2023/06/10 10:16:33;;;;;;;0.73;0.60;;;;;;;12.87;38.74;102473.53;10298003;28;20525;-78
2023/06/10 10:21:47;;;;;;;0.80;0.60;;;;;;;12.90;37.95;102465.59;10277326;28;20043;-78
2023/06/10 10:26:50;;;;;;;1.15;0.75;;;;;;;12.89;38.51;102477.69;10295800;28;20511;-79
2023/06/10 10:31:54;;;;;;;0.73;0.70;;;;;;;12.94;38.27;102468.66;10302291;28;20042;-78
2023/06/10 10:36:57;;;;;;;0.70;0.70;;;;;;;13.01;38.00;102463.81;10303260;28;20047;-79
2023/06/10 10:42:00;;;;;;;1.73;0.57;;;;;;;12.91;37.87;102469.19;10319065;28;20038;-82
2023/06/10 10:47:04;;;;;;;0.55;0.50;;;;;;;12.82;38.56;102485.28;10301550;28;20039;-80
2023/06/10 10:52:11;;;;;;;0.52;0.40;;;;;;;12.78;37.58;102464.00;10310965;28;20042;-80
2023/06/10 10:57:17;;;;;;;;;;;;;;;12.86;37.52;102467.19;10306145;28;20058;-80
2023/06/10 11:02:43;;;;;;;0.40;0.40;;;;;;;12.98;38.09;102467.06;10294441;28;20388;-81
2023/06/10 11:07:55;;;;;;;0.65;0.40;;;;;;;13.08;37.68;102469.16;10301293;28;20043;-81
2023/06/10 11:12:58;;;;;;;3.08;0.60;;;;;;;13.26;37.81;102463.38;10308936;28;20054;-80
2023/06/10 11:18:14;;;;;;;1.73;0.55;;;;;;;13.22;37.86;102453.97;10327337;28;20058;-80
2023/06/10 11:23:28;;;;;;;2.25;0.75;;;;;;;13.11;38.24;102463.97;10318875;28;20043;-80
2023/06/10 11:28:31;;;;;;;1.48;0.60;;;;;;;13.24;38.16;102463.63;10320778;28;20050;-80
2023/06/10 11:33:33;;;;;;;1.95;0.63;;;;;;;13.18;37.74;102466.56;10311798;28;20043;-80
2023/06/10 11:38:35;;;;;;;0.80;0.65;;;;;;;13.24;37.79;102466.41;10300308;28;20043;-81
2023/06/10 11:43:45;;;;;;;1.02;0.60;;;;;;;13.33;38.21;102471.47;10327094;28;20046;-81
2023/06/10 11:48:52;;;;;;;1.02;0.43;;;;;;;13.33;37.83;102469.53;10294644;28;20038;-83
2023/06/10 11:53:55;;;;;;;1.33;0.40;;;;;;;13.22;37.78;102470.50;10319120;28;20055;-80
2023/06/10 11:59:06;;;;;;;1.40;0.60;;;;;;;13.11;38.22;102477.75;10323957;28;20058;-81
2023/06/10 12:04:10;;;;;;;0.35;0.30;;;;;;;13.00;38.72;102467.66;10288035;28;20514;-81
2023/06/10 12:09:18;;;;;;;0.40;0.40;;;;;;;12.87;38.99;102468.84;10311054;28;20046;-81
2023/06/10 12:14:58;;;;;;;0.60;0.50;;;;;;;12.85;38.89;102465.53;10296786;28;20089;-81
2023/06/10 12:20:03;;;;;;;0.70;0.50;;;;;;;12.84;39.09;102471.25;10305068;28;20352;-81
2023/06/10 12:25:06;;;;;;;1.67;0.60;;;;;;;13.01;38.93;102458.28;10319806;28;20035;-81
2023/06/10 12:30:09;;;;;;;0.57;0.50;;;;;;;12.92;39.30;102457.91;10291959;28;20085;-81
2023/06/10 12:35:19;;;;;;;0.45;0.30;;;;;;;12.83;39.45;102453.88;10320172;28;20055;-81
2023/06/10 12:40:29;;;;;;;1.23;0.65;;;;;;;12.83;39.68;102462.16;10325944;28;20051;-81
2023/06/10 12:45:33;;;;;;;0.50;0.50;;;;;;;12.90;38.89;102462.00;10318198;28;20054;-81
2023/06/10 12:50:40;;;;;;;0.85;0.63;;;;;;;12.88;39.22;102453.16;10305487;28;20055;-81
2023/06/10 12:55:45;;;;;;;0.40;0.40;;;;;;;12.98;38.85;102467.06;10303456;28;20054;-81
2023/06/10 13:00:48;;;;;;;1.40;1.10;;;;;;;13.05;39.07;102444.88;10321789;28;20082;-81
2023/06/10 13:05:50;;;;;;;1.35;0.90;;;;;;;13.08;39.24;102449.88;10304819;28;20039;-82
2023/06/10 13:10:53;;;;;;;1.33;1.23;;;;;;;13.13;38.81;102460.94;10324868;28;20042;-82
2023/06/10 13:15:55;;;;;;;1.48;1.38;;;;;;;13.30;38.59;102449.91;10322421;28;20046;-82
2023/06/10 13:20:57;;;;;;;2.42;1.60;;;;;;;13.28;38.45;102444.66;10323172;28;20047;-82
2023/06/10 13:25:59;;;;;;;0.88;0.85;;;;;;;13.20;38.49;102442.34;10322531;28;20215;-82
2023/06/10 13:31:02;;;;;;;1.50;1.40;;;;;;;13.17;38.56;102445.56;10315705;28;20046;-82
2023/06/10 13:36:04;;;;;;;1.75;1.55;;;;;;;13.12;38.69;102448.25;10312658;28;20054;-82
2023/06/10 13:41:06;;;;;;;3.63;1.80;;;;;;;13.19;38.33;102433.25;10318371;28;20586;-81
2023/06/10 13:46:08;;;;;;;3.15;1.90;;;;;;;13.21;38.81;102436.59;10315431;28;20054;-82
2023/06/10 13:51:11;;;;;;;2.53;1.88;;;;;;;13.07;38.65;102450.94;10313714;28;20521;-82
2023/06/10 13:56:14;;;;;;;1.67;1.58;;;;;;;12.97;38.88;102429.56;10301302;28;20046;-79
2023/06/10 14:01:16;;;;;;;2.00;1.80;;;;;;;13.12;39.16;102438.06;10318886;28;20053;-80
2023/06/10 14:06:43;;;;;;;1.83;1.70;;;;;;;13.21;39.34;102431.06;10317356;28;20461;-80
2023/06/10 14:11:47;;;;;;;1.85;1.50;;;;;;;13.32;39.40;102414.66;10316637;28;20053;-80
2023/06/10 14:16:49;;;;;;;2.53;1.60;;;;;;;13.35;38.86;102411.38;10304569;28;20094;-80
2023/06/10 14:21:53;;;;;;;3.47;1.70;;;;;;;13.40;38.78;102417.81;10322335;28;20122;-80
2023/06/10 14:26:58;;;;;;;1.98;1.88;;;;;;;13.29;38.28;102416.00;10322189;28;20043;-80
2023/06/10 14:32:00;;;;;;;2.85;1.65;;;;;;;13.14;38.81;102411.09;10303678;28;20057;-80
2023/06/10 14:37:07;;;;;;;1.40;1.27;;;;;;;13.18;38.95;102398.47;10299503;28;20053;-81
2023/06/10 14:42:10;;;;;;;1.60;1.50;;;;;;;13.14;39.15;102402.81;10323807;28;20050;-80
2023/06/10 14:47:13;;;;;;;1.42;1.33;;;;;;;13.23;39.32;102406.00;10330801;28;20046;-80
2023/06/10 14:52:15;;;;;;;1.52;1.40;;;;;;;13.25;39.61;102403.81;10328384;28;20437;-81
2023/06/10 14:57:17;;;;;;;3.33;1.33;;;;;;;13.27;39.58;102396.97;10304109;28;20054;-85
2023/06/10 15:02:19;;;;;;;1.42;1.33;;;;;;;13.36;39.20;102402.00;10330431;28;20050;-86
2023/06/10 15:07:21;;;;;;;2.65;1.25;;;;;;;13.34;38.68;102402.28;10325149;28;20061;-85
2023/06/10 15:12:24;;;;;;;1.50;1.30;;;;;;;13.32;38.61;102387.91;10317344;28;20069;-87
2023/06/10 15:17:27;;;;;;;2.05;1.30;;;;;;;13.39;38.90;102399.59;10319273;28;20042;-87
2023/06/10 15:22:29;;;;;;;0.90;0.90;;;;;;;13.36;39.01;102410.28;10323156;28;20062;-84
2023/06/10 15:27:31;;;;;;;2.17;1.40;;;;;;;13.32;39.49;102409.13;10307542;28;20514;-83
2023/06/10 15:32:33;;;;;;;1.00;0.90;;;;;;;13.26;38.73;102417.34;10328748;28;20045;-85
2023/06/10 15:37:36;;;;;;;1.75;1.40;;;;;;;13.20;39.42;102418.38;10321645;28;20046;-83
2023/06/10 15:42:38;;;;;;;1.20;1.10;;;;;;;13.19;39.50;102410.34;10321231;28;20058;-81
2023/06/10 15:47:41;;;;;;;0.85;0.82;;;;;;;13.17;39.00;102424.34;10315076;28;20054;-80
2023/06/10 15:52:43;;;;;;;3.60;1.10;;;;;;;13.18;38.98;102412.25;10325217;28;20532;-80
2023/06/10 15:57:45;;;;;;;1.20;1.08;;;;;;;13.21;39.76;102414.53;10327102;28;20046;-80
2023/06/10 16:02:48;;;;;;;2.10;1.40;;;;;;;13.17;39.18;102429.03;10324509;28;20139;-80
2023/06/10 16:07:50;;;;;;;0.80;0.80;;;;;;;13.14;39.97;102438.66;10327472;28;20042;-80
2023/06/10 16:12:52;;;;;;;1.42;1.10;;;;;;;13.04;39.69;102407.38;10325849;28;20413;-80
2023/06/10 16:17:55;;;;;;;1.30;1.20;;;;;;;13.06;39.52;102425.31;10323862;28;20078;-80
2023/06/10 16:22:57;;;;;;;1.48;1.10;;;;;;;12.98;39.46;102409.19;10313610;28;20045;-80
2023/06/10 16:28:00;;;;;;;2.78;1.33;;;;;;;13.13;39.61;102416.84;10312745;28;20047;-81
2023/06/10 16:33:02;;;;;;;1.67;0.85;;;;;;;13.13;39.81;102412.16;10326068;28;20073;-80
2023/06/10 16:38:04;;;;;;;1.88;0.90;;;;;;;13.11;39.77;102430.06;10327173;28;20050;-80
2023/06/10 16:43:07;;;;;;;0.80;0.70;;;;;;;13.09;39.30;102415.69;10325941;28;20055;-80
2023/06/10 16:48:09;;;;;;;1.83;0.73;;;;;;;13.03;39.25;102422.25;10325452;28;20054;-83
2023/06/10 16:53:11;;;;;;;1.05;0.90;;;;;;;12.89;40.25;102419.84;10326349;28;20046;-80
2023/06/10 16:58:13;;;;;;;1.42;1.33;;;;;;;12.85;39.36;102409.59;10307097;28;20055;-82
2023/06/10 17:03:16;;;;;;;1.65;1.13;;;;;;;12.79;39.77;102419.69;10285663;28;20051;-82
2023/06/10 17:08:18;;;;;;;0.60;0.60;;;;;;;12.72;39.53;102421.78;10322422;28;20042;-80
2023/06/10 17:13:21;;;;;;;2.15;1.58;;;;;;;12.70;40.32;102420.38;10325188;28;20045;-82
2023/06/10 17:18:23;;;;;;;1.77;1.23;;;;;;;12.64;39.79;102427.69;10324959;28;20416;-82
2023/06/10 17:23:25;;;;;;;1.23;0.85;;;;;;;12.65;40.05;102427.44;10325200;28;20042;-82
2023/06/10 17:28:27;;;;;;;1.02;0.95;;;;;;;12.72;39.80;102430.03;10318208;28;20047;-82
2023/06/10 17:33:29;;;;;;;1.10;0.88;;;;;;;12.67;39.99;102416.22;10324317;28;20039;-82
2023/06/10 17:38:31;;;;;;;3.45;1.20;;;;;;;12.58;40.29;102424.03;10323867;28;20063;-82
2023/06/10 17:43:34;;;;;;;0.80;0.73;;;;;;;12.50;40.44;102424.47;10323705;28;20070;-82
2023/06/10 17:48:36;;;;;;;3.83;1.48;;;;;;;12.44;39.83;102419.13;10323702;28;20066;-82
2023/06/10 17:53:38;;;;;;;1.90;0.90;;;;;;;12.47;40.15;102421.38;10321981;28;20043;-83
2023/06/10 17:58:41;;;;;;;1.17;1.08;;;;;;;12.50;39.86;102432.72;10311148;28;20505;-82
2023/06/10 18:03:43;;;;;;;2.28;1.10;;;;;;;12.43;39.84;102423.78;10285461;28;20046;-81
2023/06/10 18:08:45;;;;;;;1.40;1.15;;;;;;;12.32;40.80;102433.81;10290406;28;20054;-84
2023/06/10 18:13:49;;;;;;;1.58;1.20;;;;;;;12.31;40.61;102425.78;10314191;28;20051;-82
2023/06/10 18:18:51;;;;;;;1.60;1.50;;;;;;;12.28;40.67;102426.28;10308096;28;20067;-80
2023/06/10 18:23:53;;;;;;;1.27;1.13;;;;;;;12.22;40.55;102441.03;10301013;28;20058;-81
2023/06/10 18:28:55;;;;;;;3.38;1.63;;;;;;;12.15;41.18;102435.72;10293785;28;20054;-80
2023/06/10 18:33:58;;;;;;;1.20;1.10;;;;;;;12.05;40.66;102441.84;10315542;28;20065;-78
2023/06/10 18:39:00;;;;;;;1.95;1.48;;;;;;;12.06;41.36;102450.94;10300475;28;20061;-76
2023/06/10 18:44:03;;;;;;;3.13;1.40;;;;;;;12.04;41.08;102458.59;10316918;28;20066;-77
2023/06/10 18:49:05;;;;;;;2.83;1.92;;;;;;;12.01;41.71;102459.09;10321407;28;20517;-77
2023/06/10 18:54:07;;;;;;;4.10;2.00;;;;;;;11.95;40.96;102451.81;10309710;28;20498;-80
2023/06/10 18:59:09;;;;;;;3.38;2.35;;;;;;;11.84;41.85;102466.47;10311441;28;20034;-78
2023/06/10 19:04:12;;;;;;;3.35;2.28;;;;;;;11.78;42.33;102462.72;10319387;28;20154;-90
2023/06/10 19:09:14;;;;;;;3.25;1.40;;;;;;;11.65;41.50;102454.78;10305160;28;20046;-87
2023/06/10 19:14:17;;;;;;;3.00;1.88;;;;;;;11.66;42.58;102465.53;10303930;28;20043;-82
2023/06/10 19:19:19;;;;;;;2.95;1.48;;;;;;;11.81;42.14;102466.97;10293048;28;20056;-85
2023/06/10 19:24:22;;;;;;;3.13;1.98;;;;;;;11.62;42.89;102469.84;10313726;28;20050;-85
2023/06/10 19:29:24;;;;;;;4.63;2.03;;;;;;;11.67;42.71;102467.22;10320505;28;20043;-84
2023/06/10 19:34:26;;;;;;;3.80;1.70;;;;;;;11.67;42.95;102475.47;10280601;28;20035;-83
2023/06/10 19:39:28;;;;;;;3.95;1.60;;;;;;;11.59;43.75;102473.06;10325019;28;20047;-82
2023/06/10 19:44:30;;;;;;;3.60;1.52;;;;;;;11.68;43.28;102479.88;10289102;28;20574;-83
2023/06/10 19:49:33;;;;;;;3.20;1.55;;;;;;;11.68;43.39;102487.28;10289068;28;20125;-82
2023/06/10 19:54:35;;;;;;;3.55;2.70;;;;;;;11.69;44.14;102495.31;10297466;28;20064;-83
2023/06/10 19:59:38;;;;;;;8.82;3.40;;;;;;;11.69;44.92;102488.97;10320613;28;20054;-81
2023/06/10 20:04:40;;;;;;;5.88;2.92;;;;;;;11.67;46.15;102491.97;10325489;28;20528;-83
2023/06/10 20:09:43;;;;;;;7.15;2.63;;;;;;;11.66;45.48;102490.28;10288255;28;20047;-83
2023/06/10 20:14:45;;;;;;;3.35;2.60;;;;;;;11.72;45.51;102493.97;10319269;28;20424;-80
2023/06/10 20:19:52;;;;;;;4.97;2.90;;;;;;;11.69;45.32;102497.22;10326218;28;20049;-83
2023/06/10 20:24:54;;;;;;;9.32;5.30;;;;;;;11.65;48.70;102505.13;10299607;28;20141;-89
2023/06/10 20:29:56;;;;;;;6.22;3.47;;;;;;;11.35;49.60;102507.19;10289542;28;20073;-86
2023/06/10 20:34:58;;;;;;;11.93;4.63;;;;;;;11.18;51.19;102510.69;10305745;28;20134;-88
2023/06/10 20:40:01;;;;;;;11.68;4.70;;;;;;;11.13;50.84;102507.81;10323630;28;20035;-88
2023/06/10 20:45:03;;;;;;;5.60;4.03;;;;;;;10.90;51.46;102509.69;10321095;28;20051;-84
2023/06/10 20:50:06;;;;;;;6.47;4.07;;;;;;;10.89;51.32;102519.84;10271215;29;20043;-83
2023/06/10 20:55:08;;;;;;;8.95;3.80;;;;;;;10.82;50.59;102521.88;10268546;29;20070;-84
2023/06/10 21:00:11;;;;;;;10.48;4.35;;;;;;;10.91;51.74;102523.19;10287297;28;20051;-83
2023/06/10 21:05:13;;;;;;;7.47;3.80;;;;;;;10.89;51.11;102530.84;10315242;28;20039;-83
2023/06/10 21:10:16;;;;;;;5.38;3.20;;;;;;;10.87;51.38;102528.34;10308552;28;20050;-83
2023/06/10 21:15:18;;;;;;;6.25;3.25;;;;;;;10.95;50.45;102535.41;10325362;28;20047;-86
2023/06/10 21:20:20;;;;;;;9.00;3.42;;;;;;;10.98;50.76;102532.19;10308627;28;20413;-84
2023/06/10 21:25:22;;;;;;;10.90;3.67;;;;;;;10.88;51.39;102537.41;10324659;28;20051;-86
2023/06/10 21:30:25;;;;;;;5.25;3.22;;;;;;;10.83;50.45;102540.88;10306948;28;20045;-85
2023/06/10 21:35:27;;;;;;;8.23;3.08;;;;;;;10.76;50.21;102542.03;10282639;29;20050;-84
2023/06/10 21:40:30;;;;;;;5.55;3.00;;;;;;;10.87;49.33;102544.81;10313180;28;20050;-85
2023/06/10 21:45:32;;;;;;;4.75;2.65;;;;;;;10.93;49.12;102540.28;10295215;28;20051;-81
2023/06/10 21:50:35;;;;;;;8.10;3.35;;;;;;;10.90;50.21;102545.41;10319829;28;20050;-81
2023/06/10 21:55:37;;;;;;;4.45;2.58;;;;;;;10.79;50.27;102552.56;10281294;28;20046;-80
2023/06/10 22:00:39;;;;;;;3.95;2.80;;;;;;;10.68;48.49;102550.63;10308991;28;20047;-80
2023/06/10 22:05:42;;;;;;;5.13;2.55;;;;;;;10.54;48.82;102553.56;10310301;28;20038;-79
2023/06/10 22:10:44;;;;;;;4.47;2.45;;;;;;;10.51;49.47;102565.03;10317294;28;20042;-79
2023/06/10 22:15:47;;;;;;;3.17;2.30;;;;;;;10.49;48.99;102563.59;10322668;28;20043;-80
2023/06/10 22:20:49;;;;;;;4.18;2.75;;;;;;;10.42;48.94;102566.44;10307211;28;20051;-80
2023/06/10 22:25:51;;;;;;;6.22;4.07;;;;;;;10.44;52.76;102572.53;10284013;28;20054;-79
2023/06/10 22:30:54;;;;;;;6.55;3.20;;;;;;;10.40;53.41;102571.28;10282718;28;20399;-79
2023/06/10 22:35:57;;;;;;;4.72;3.13;;;;;;;10.39;52.37;102572.38;10288565;28;20045;-81
2023/06/10 22:40:59;;;;;;;5.22;2.97;;;;;;;10.43;52.39;102565.38;10299926;28;20043;-79
2023/06/10 22:46:02;;;;;;;7.15;3.55;;;;;;;10.52;52.96;102571.34;10297988;28;20058;-82
2023/06/10 22:51:05;;;;;;;3.47;2.55;;;;;;;10.52;51.88;102566.69;10309688;28;20031;-86
2023/06/10 22:56:07;;;;;;;5.72;3.08;;;;;;;10.49;51.30;102566.34;10304314;28;20062;-83
2023/06/10 23:01:10;;;;;;;5.22;2.97;;;;;;;10.43;51.66;102561.78;10298996;28;20039;-85
2023/06/10 23:06:12;;;;;;;3.45;2.30;;;;;;;10.37;51.85;102566.28;10327015;28;20402;-85
2023/06/10 23:11:14;;;;;;;7.50;3.00;;;;;;;10.25;52.83;102566.25;10310532;28;20405;-86
2023/06/10 23:16:16;;;;;;;5.68;3.47;;;;;;;10.27;53.92;102568.75;10298886;28;20058;-86
2023/06/10 23:21:20;;;;;;;5.68;2.75;;;;;;;10.27;54.84;102568.75;10329735;28;20039;-85